Friday, January 18, 2019, 11:15 PM EST
Back to Local

KBGR, Bangor Int'l Airport

Location: Bangor, ME, United States Lat: 44.8
Local Time: 11:15 PM EST ( 4:15 GMT) Lon: -68.817
Time Zone: US/Eastern Elev: 193 ft

Show me the last for .
Show Decoded

2019-01-18 22:53 METAR KBGR 190353Z 28006KT 10SM FEW040 M04/M07 A3006 RMK AO2 SLP182 T10441067 =
2019-01-18 21:53 METAR KBGR 190253Z 28005KT 10SM FEW065 FEW090 M03/M06 A3002 RMK AO2 SLP168 60001
                 T10331056 53016 =
2019-01-18 20:53 METAR KBGR 190153Z 26007KT 10SM BKN060 OVC090 M02/M04 A3000 RMK AO2 SNE37 SLP162
                 P0001 T10171039 =
2019-01-18 20:40 METAR KBGR 190140Z 26006KT 10SM FEW015 BKN065 OVC090 M01/M03 A3000 RMK AO2 SNE37
                 P0001 T10111033 =
2019-01-18 19:53 METAR KBGR 190053Z 23004KT 6SM -SN BR OVC018 M01/M02 A2998 RMK AO2 SLP155 P0000
                 T10061017 =
2019-01-18 19:16 METAR KBGR 190016Z 22006KT 5SM -SN BR FEW008 BKN029 OVC055 00/M01 A2997 RMK AO2
                 P0000 T00001011 =
2019-01-18 18:53 METAR KBGR 182353Z COR 20006KT 5SM -SN BR FEW008 OVC038 M01/M01 A2997 RMK AO2
                 SLP152 4/002 P0000 60000 T10061011 11006 21022 56005 =
2019-01-18 17:55 METAR KBGR 182255Z 19004KT 3SM -SN BR FEW009 BKN030 OVC038 M01/M02 A2997 RMK AO2
                 P0000 T10111017 =
2019-01-18 17:53 METAR KBGR 182253Z 19004KT 3SM -SN BR FEW009 BKN026 OVC038 M01/M02 A2997 RMK AO2
                 SLP153 P0000 T10111017 =
2019-01-18 16:53 METAR KBGR 182153Z 17005KT 3SM -SN BR BKN011 BKN043 OVC055 M01/M02 A2998 RMK AO2
                 SNE02B11 SLP155 P0000 T10111022 =
2019-01-18 16:29 METAR KBGR 182129Z 18004KT 1 3/4SM -SN BR OVC011 M01/M02 A2998 RMK AO2 SFC VIS 2
                 SNE02B11 P0000 T10111022 =
2019-01-18 16:12 METAR KBGR 182112Z 17004KT 1 3/4SM -SN BR SCT011 OVC016 M01/M02 A2998 RMK AO2
                 SFC VIS 2 SNE02B11 P0000 T10111022 =
2019-01-18 16:10 METAR KBGR 182110Z 17005KT 1 3/4SM BR SCT011 OVC016 M01/M02 A2998 RMK AO2 SFC
                 VIS 2 SNE02 P0000 T10111022 =
2019-01-18 16:03 METAR KBGR 182103Z 17005KT 1 3/4SM BR BKN013 OVC018 M01/M02 A2999 RMK AO2 SFC
                 VIS 2 SNE02 P0000 T10111022 =
2019-01-18 15:53 METAR KBGR 182053Z 18006KT 3/4SM R15/P6000FT -SN BR BKN016 OVC020 M01/M02 A2999
                 RMK AO2 SFC VIS 1 SLP158 P0000 60000 T10111022 56021 =
2019-01-18 14:53 METAR KBGR 181953Z 18007KT 3/4SM R15/5000V5500FT -SN BR BKN013 OVC019 M02/M02
                 A3000 RMK AO2 SLP163 P0000 T10171022 =
2019-01-18 13:53 METAR KBGR 181853Z 17007KT 3/4SM R15/5000VP6000FT -SN BR BKN010 OVC019 M02/M03
                 A3002 RMK AO2 SLP170 P0000 T10171028 =
2019-01-18 13:23 METAR KBGR 181823Z 18006KT 3/4SM R15/4000V5500FT -SN BR BKN010 OVC019 M02/M03
                 A3004 RMK AO2 SFC VIS 1 P0000 T10171028 =
2019-01-18 12:53 METAR KBGR 181753Z 19005KT 1SM R15/P6000FT -SN BR OVC020 M02/M03 A3005 RMK AO2
                 SFC VIS 1 1/4 SLP178 4/002 P0000 60000 T10221033 11022 21106 56028 =
2019-01-18 12:49 METAR KBGR 181749Z 19007KT 1SM R15/P6000FT -SN BR OVC020 M02/M03 A3005 RMK AO2
                 SFC VIS 1 1/4 P0000 =
2019-01-18 11:53 METAR KBGR 181653Z 00000KT 2SM -SN BR OVC021 M03/M04 A3009 RMK AO2 SLP194 P0000
                 T10281044 =
2019-01-18 11:25 METAR KBGR 181625Z 00000KT 2SM R15/6000VP6000FT -SN BR BKN016 OVC023 M04/M05
                 A3011 RMK AO2 P0000 T10391050 =
2019-01-18 10:53 METAR KBGR 181553Z 18003KT 2SM -SN BR BKN014 OVC021 M04/M06 A3013 RMK AO2 SLP208
                 P0000 T10441061 =
2019-01-18 09:53 METAR KBGR 181453Z 14005KT 2SM -SN OVC017 M06/M08 A3017 RMK AO2 SNE21B43 SLP220
                 P0000 60000 T10561083 56015 =
2019-01-18 09:50 METAR KBGR 181450Z 15005KT 1 3/4SM -SN OVC017 M06/M08 A3017 RMK AO2 TWR VIS 2
                 SNE21B43 P0000 =
2019-01-18 09:27 METAR KBGR 181427Z 15005KT 9SM OVC017 M06/M09 A3017 RMK AO2 SNE21 P0000
                 T10611094 =
2019-01-18 08:53 METAR KBGR 181353Z 00000KT 8SM -SN SCT026 BKN033 OVC075 M07/M11 A3018 RMK AO2
                 SNB1254 SLP225 P0000 T10721111 =
2019-01-18 07:53 METAR KBGR 181253Z 00000KT 10SM FEW032 BKN055 BKN200 M09/M13 A3019 RMK AO2
                 SLP229 T10941128 $ =
2019-01-18 06:53 METAR KBGR 181153Z 36004KT 10SM FEW032 BKN055 OVC200 M11/M13 A3021 RMK AO2 SNE42
                 SLP236 4/001 P0000 60000 T11061133 11094 21117 56013 $ =
2019-01-18 05:53 METAR KBGR 181053Z 35004KT 9SM -SN BKN047 OVC100 M10/M13 A3021 RMK AO2 SLP238
                 P0000 T11001128 $ =
2019-01-18 04:53 METAR KBGR 180953Z 00000KT 8SM -SN OVC040 M09/M14 A3022 RMK AO2 SNB31 SLP239
                 P0000 T10941144 $ =
2019-01-18 03:53 METAR KBGR 180853Z 00000KT 10SM FEW080 OVC095 M10/M16 A3025 RMK AO2 SLP248
                 T11001156 58024 $ =
2019-01-18 02:53 METAR KBGR 180753Z 00000KT 10SM FEW080 OVC095 M11/M17 A3028 RMK AO2 SLP257
                 T11061172 $ =
2019-01-18 01:53 METAR KBGR 180653Z 13003KT 10SM OVC095 M11/M18 A3030 RMK AO2 SLP267 T11111178 $
                 =
2019-01-18 00:53 METAR KBGR 180553Z COR 16003KT 10SM OVC095 M12/M18 A3032 RMK AO2 SLP274 4/001
                 T11171178 11117 21150 58018 $ =
2019-01-17 23:53 METAR KBGR 180453Z 00000KT 10SM OVC110 M12/M18 A3035 RMK AO2 SLP283 T11221183
                 410941156 $ =

Support USWX by starting your Amazon purchase here.